createdAt,value
2022-12-03T00:00:15.111Z,95521
2022-12-03T00:01:23.848Z,95519
2022-12-03T00:02:32.641Z,95521
2022-12-03T00:03:42.388Z,95518
2022-12-03T00:04:49.995Z,95520
2022-12-03T00:05:58.578Z,95520
2022-12-03T00:07:08.245Z,95520
2022-12-03T00:08:16.099Z,95516
2022-12-03T00:09:25.050Z,95515
2022-12-03T00:10:34.885Z,95516
2022-12-03T00:11:43.548Z,95512
2022-12-03T00:12:53.216Z,95511
2022-12-03T00:14:01.887Z,95508
2022-12-03T00:15:10.551Z,95513
2022-12-03T00:16:20.297Z,95506
2022-12-03T00:17:28.917Z,95514
2022-12-03T00:18:38.591Z,95510
2022-12-03T00:19:47.258Z,95507
2022-12-03T00:20:57.027Z,95511
2022-12-03T00:22:06.695Z,95507
2022-12-03T00:23:15.359Z,95509
2022-12-03T00:24:24.004Z,95510
2022-12-03T00:25:33.685Z,95512
2022-12-03T00:26:42.367Z,95513
2022-12-03T00:27:52.043Z,95516
2022-12-03T00:29:00.723Z,95518
2022-12-03T00:30:09.453Z,95510
2022-12-03T00:31:19.079Z,95518
2022-12-03T00:32:26.716Z,95518
2022-12-03T00:33:35.394Z,95513
2022-12-03T00:34:45.047Z,95513
2022-12-03T00:35:53.706Z,95518
2022-12-03T00:37:02.401Z,95521
2022-12-03T00:38:11.074Z,95522
2022-12-03T00:39:20.769Z,95518
2022-12-03T00:40:30.427Z,95519
2022-12-03T00:41:40.099Z,95524
2022-12-03T00:42:49.800Z,95520
2022-12-03T00:43:58.484Z,95526
2022-12-03T00:45:07.144Z,95522
2022-12-03T00:46:21.024Z,95526
2022-12-03T00:47:25.433Z,95524
2022-12-03T00:48:34.081Z,95521
2022-12-03T00:49:42.778Z,95524
2022-12-03T00:50:51.443Z,95523
2022-12-03T00:52:00.108Z,95519
2022-12-03T00:53:07.759Z,95516
2022-12-03T00:54:16.394Z,95516
2022-12-03T00:55:27.111Z,95517
2022-12-03T00:56:36.780Z,95516
2022-12-03T00:57:45.449Z,95518
2022-12-03T00:58:55.123Z,95518
2022-12-03T01:00:03.791Z,95514
2022-12-03T01:01:13.553Z,95523
2022-12-03T01:02:21.217Z,95515
2022-12-03T01:03:29.780Z,95521
2022-12-03T01:04:39.505Z,95517
2022-12-03T01:05:49.153Z,95516
2022-12-03T01:06:57.812Z,95521
2022-12-03T01:08:06.585Z,95523
2022-12-03T01:09:15.187Z,95518
2022-12-03T01:10:24.890Z,95516
2022-12-03T01:11:32.582Z,95517
2022-12-03T01:12:41.325Z,95519
2022-12-03T01:13:50.995Z,95523
2022-12-03T01:14:59.658Z,95525
2022-12-03T01:16:08.415Z,95521
2022-12-03T01:17:18.023Z,95523
2022-12-03T01:18:26.744Z,95520
2022-12-03T01:19:36.371Z,95524
2022-12-03T01:20:45.007Z,95522
2022-12-03T01:21:54.685Z,95522
2022-12-03T01:23:04.373Z,95516
2022-12-03T01:24:13.044Z,95520
2022-12-03T01:25:22.728Z,95519
2022-12-03T01:26:31.390Z,95517
2022-12-03T01:27:40.033Z,95526
2022-12-03T01:28:49.790Z,95519
2022-12-03T01:29:57.453Z,95519
2022-12-03T01:31:07.155Z,95520
2022-12-03T01:32:16.807Z,95523
2022-12-03T01:33:24.460Z,95521
2022-12-03T01:34:33.137Z,95521
2022-12-03T01:35:42.863Z,95517
2022-12-03T01:36:52.624Z,95517
2022-12-03T01:38:02.224Z,95515
2022-12-03T01:39:09.889Z,95519
2022-12-03T01:40:19.581Z,95512
2022-12-03T01:41:29.285Z,95511
2022-12-03T01:42:36.942Z,95510
2022-12-03T01:43:45.606Z,95517
2022-12-03T01:44:54.555Z,95515
2022-12-03T01:46:04.055Z,95517
2022-12-03T01:47:13.650Z,95516
2022-12-03T01:48:22.329Z,95520
2022-12-03T01:49:30.982Z,95528
2022-12-03T01:50:40.659Z,95530
2022-12-03T01:51:48.298Z,95532
2022-12-03T01:52:57.990Z,95525
2022-12-03T01:54:06.651Z,95528
2022-12-03T01:55:15.370Z,95521
2022-12-03T01:56:24.021Z,95525
2022-12-03T01:57:31.735Z,95525
2022-12-03T01:58:40.533Z,95526
2022-12-03T01:59:50.187Z,95523
2022-12-03T02:00:58.920Z,95524
2022-12-03T02:02:08.629Z,95521
2022-12-03T02:03:17.279Z,95519
2022-12-03T02:04:26.069Z,95512
2022-12-03T02:05:35.813Z,95512
2022-12-03T02:06:44.518Z,95515
2022-12-03T02:07:53.216Z,95516
2022-12-03T02:09:02.894Z,95516
2022-12-03T02:10:11.581Z,95519
2022-12-03T02:11:20.242Z,95525
2022-12-03T02:12:28.913Z,95525
2022-12-03T02:13:37.616Z,95521
2022-12-03T02:14:47.308Z,95519
2022-12-03T02:15:56.041Z,95524
2022-12-03T02:17:04.667Z,95520
2022-12-03T02:18:14.396Z,95520
2022-12-03T02:19:23.051Z,95523
2022-12-03T02:20:31.732Z,95519
2022-12-03T02:21:40.455Z,95523
2022-12-03T02:22:50.114Z,95522
2022-12-03T02:23:59.789Z,95523
2022-12-03T02:25:07.443Z,95518
2022-12-03T02:26:16.087Z,95519
2022-12-03T02:27:25.813Z,95518
2022-12-03T02:28:33.495Z,95509
2022-12-03T02:29:42.185Z,95508
2022-12-03T02:30:50.867Z,95512
2022-12-03T02:31:59.575Z,95516
2022-12-03T02:33:09.218Z,95519
2022-12-03T02:34:17.889Z,95520
2022-12-03T02:35:27.577Z,95519
2022-12-03T02:36:37.241Z,95522
2022-12-03T02:37:43.921Z,95519
2022-12-03T02:38:52.715Z,95521
2022-12-03T02:40:00.339Z,95517
2022-12-03T02:41:08.985Z,95525
2022-12-03T02:42:17.680Z,95519
2022-12-03T02:43:26.354Z,95516
2022-12-03T02:44:36.028Z,95518
2022-12-03T02:45:43.692Z,95515
2022-12-03T02:46:52.442Z,95516
2022-12-03T02:48:02.067Z,95514
2022-12-03T02:49:12.737Z,95515
2022-12-03T02:50:21.411Z,95518
2022-12-03T02:51:30.148Z,95515
2022-12-03T02:52:38.782Z,95520
2022-12-03T02:53:48.445Z,95518
2022-12-03T02:54:57.125Z,95518
2022-12-03T02:56:05.782Z,95520
2022-12-03T02:57:15.447Z,95516
2022-12-03T02:58:23.092Z,95514
2022-12-03T02:59:31.764Z,95506
2022-12-03T03:00:41.477Z,95512
2022-12-03T03:01:50.195Z,95513
2022-12-03T03:02:59.816Z,95506
2022-12-03T03:04:08.481Z,95510
2022-12-03T03:05:18.134Z,95510
2022-12-03T03:06:27.802Z,95509
2022-12-03T03:07:35.495Z,95505
2022-12-03T03:08:44.171Z,95514
2022-12-03T03:09:52.889Z,95518
2022-12-03T03:11:02.598Z,95517
2022-12-03T03:12:12.262Z,95521
2022-12-03T03:13:18.947Z,95522
2022-12-03T03:14:28.600Z,95523
2022-12-03T03:15:38.312Z,95519
2022-12-03T03:16:47.013Z,95516
2022-12-03T03:17:55.668Z,95516
2022-12-03T03:19:05.352Z,95514
2022-12-03T03:20:14.000Z,95516
2022-12-03T03:21:22.737Z,95511
2022-12-03T03:22:30.389Z,95510
2022-12-03T03:23:40.119Z,95509
2022-12-03T03:24:49.976Z,95509
2022-12-03T03:25:57.513Z,95511
2022-12-03T03:27:07.243Z,95508
2022-12-03T03:28:16.875Z,95503
2022-12-03T03:29:26.583Z,95499
2022-12-03T03:30:36.341Z,95497
2022-12-03T03:31:46.043Z,95498
2022-12-03T03:32:54.686Z,95496
2022-12-03T03:34:04.390Z,95501
2022-12-03T03:35:12.046Z,95500
2022-12-03T03:36:20.753Z,95503
2022-12-03T03:37:29.408Z,95504
2022-12-03T03:38:39.082Z,95504
2022-12-03T03:39:48.732Z,95502
2022-12-03T03:40:58.392Z,95500
2022-12-03T03:42:07.115Z,95501
2022-12-03T03:43:16.818Z,95493
2022-12-03T03:44:25.477Z,95492
2022-12-03T03:45:34.154Z,95491
2022-12-03T03:46:42.780Z,95492
2022-12-03T03:47:51.479Z,95495
2022-12-03T03:49:01.141Z,95497
2022-12-03T03:50:08.799Z,95498
2022-12-03T03:51:17.457Z,95497
2022-12-03T03:52:27.117Z,95496
2022-12-03T03:53:36.842Z,95507
2022-12-03T03:54:46.516Z,95504
2022-12-03T03:55:55.187Z,95499
2022-12-03T03:57:04.842Z,95502
2022-12-03T03:58:15.498Z,95502
2022-12-03T03:59:24.303Z,95506
2022-12-03T04:00:32.942Z,95509
2022-12-03T04:01:42.689Z,95510
2022-12-03T04:02:50.254Z,95506
2022-12-03T04:03:59.989Z,95503
2022-12-03T04:05:08.610Z,95501
2022-12-03T04:06:18.250Z,95503
2022-12-03T04:07:27.991Z,95500
2022-12-03T04:08:36.568Z,95496
2022-12-03T04:09:45.239Z,95498
2022-12-03T04:10:54.942Z,95502
2022-12-03T04:12:04.643Z,95500
2022-12-03T04:13:14.335Z,95499
2022-12-03T04:14:23.988Z,95503
2022-12-03T04:15:33.673Z,95501
2022-12-03T04:16:43.393Z,95498
2022-12-03T04:17:52.040Z,95495
2022-12-03T04:19:00.716Z,95503
2022-12-03T04:20:10.418Z,95499
2022-12-03T04:21:18.064Z,95502
2022-12-03T04:22:26.754Z,95503
2022-12-03T04:23:35.406Z,95500
2022-12-03T04:24:45.056Z,95497
2022-12-03T04:25:54.795Z,95494
2022-12-03T04:27:02.489Z,95495
2022-12-03T04:28:12.158Z,95493
2022-12-03T04:29:21.882Z,95492
2022-12-03T04:30:30.590Z,95492
2022-12-03T04:31:40.232Z,95492
2022-12-03T04:32:49.883Z,95484
2022-12-03T04:33:59.564Z,95491
2022-12-03T04:35:09.307Z,95495
2022-12-03T04:36:17.882Z,95498
2022-12-03T04:37:27.626Z,95496
2022-12-03T04:38:35.281Z,95497
2022-12-03T04:39:43.954Z,95499
2022-12-03T04:40:53.641Z,95504
2022-12-03T04:42:02.303Z,95504
2022-12-03T04:43:11.070Z,95504
2022-12-03T04:44:20.760Z,95504
2022-12-03T04:45:29.447Z,95508
2022-12-03T04:46:39.114Z,95509
2022-12-03T04:47:48.920Z,95511
2022-12-03T04:48:58.571Z,95511
2022-12-03T04:50:08.236Z,95506
2022-12-03T04:51:15.904Z,95511
2022-12-03T04:52:25.574Z,95513
2022-12-03T04:53:36.188Z,95517
2022-12-03T04:54:44.908Z,95515
2022-12-03T04:55:54.604Z,95514
2022-12-03T04:57:03.331Z,95509
2022-12-03T04:58:11.994Z,95509
2022-12-03T04:59:21.731Z,95510
2022-12-03T05:00:29.463Z,95501
2022-12-03T05:01:38.302Z,95501
2022-12-03T05:02:46.848Z,95501
2022-12-03T05:03:56.584Z,95498
2022-12-03T05:05:06.225Z,95504
2022-12-03T05:06:14.889Z,95510
2022-12-03T05:07:24.666Z,95510
2022-12-03T05:08:34.410Z,95504
2022-12-03T05:09:43.058Z,95504
2022-12-03T05:10:52.770Z,95501
2022-12-03T05:12:01.430Z,95506
2022-12-03T05:13:11.216Z,95504
2022-12-03T05:14:20.995Z,95508
2022-12-03T05:15:29.708Z,95510
2022-12-03T05:16:39.444Z,95508
2022-12-03T05:17:49.030Z,95509
2022-12-03T05:18:57.739Z,95514
2022-12-03T05:20:06.451Z,95511
2022-12-03T05:21:17.064Z,95510
2022-12-03T05:22:25.733Z,95508
2022-12-03T05:23:35.399Z,95509
2022-12-03T05:24:44.084Z,95510
2022-12-03T05:25:52.761Z,95513
2022-12-03T05:27:02.455Z,95510
2022-12-03T05:28:11.140Z,95512
2022-12-03T05:29:20.782Z,95513
2022-12-03T05:30:30.483Z,95509
2022-12-03T05:31:40.217Z,95503
2022-12-03T05:32:49.910Z,95510
2022-12-03T05:33:59.601Z,95514
2022-12-03T05:35:08.274Z,95515
2022-12-03T05:36:17.920Z,95511
2022-12-03T05:37:26.596Z,95513
2022-12-03T05:38:35.248Z,95514
2022-12-03T05:39:43.916Z,95514
2022-12-03T05:40:52.576Z,95512
2022-12-03T05:42:02.225Z,95515
2022-12-03T05:43:09.921Z,95516
2022-12-03T05:44:20.758Z,95509
2022-12-03T05:45:29.373Z,95515
2022-12-03T05:46:38.218Z,95517
2022-12-03T05:47:47.806Z,95519
2022-12-03T05:48:56.518Z,95515
2022-12-03T05:50:05.238Z,95518
2022-12-03T05:51:14.934Z,95515
2022-12-03T05:52:24.584Z,95517
2022-12-03T05:53:34.288Z,95519
2022-12-03T05:54:44.109Z,95519
2022-12-03T05:55:51.800Z,95525
2022-12-03T05:57:00.465Z,95523
2022-12-03T05:58:09.144Z,95532
2022-12-03T05:59:17.787Z,95526
2022-12-03T06:00:27.459Z,95532
2022-12-03T06:01:37.185Z,95529
2022-12-03T06:02:45.943Z,95525
2022-12-03T06:03:55.558Z,95526
2022-12-03T06:05:03.187Z,95523
2022-12-03T06:06:12.884Z,95516
2022-12-03T06:07:21.567Z,95517
2022-12-03T06:08:31.216Z,95518
2022-12-03T06:09:40.882Z,95520
2022-12-03T06:10:48.538Z,95523
2022-12-03T06:11:58.231Z,95518
2022-12-03T06:13:07.901Z,95515
2022-12-03T06:14:15.642Z,95522
2022-12-03T06:15:24.372Z,95518
2022-12-03T06:16:33.074Z,95514
2022-12-03T06:17:41.746Z,95513
2022-12-03T06:18:51.429Z,95507
2022-12-03T06:19:59.093Z,95510
2022-12-03T06:21:08.765Z,95509
2022-12-03T06:22:18.422Z,95511
2022-12-03T06:23:27.125Z,95511
2022-12-03T06:24:36.790Z,95506
2022-12-03T06:25:45.529Z,95507
2022-12-03T06:26:55.184Z,95507
2022-12-03T06:28:04.867Z,95506
2022-12-03T06:29:13.515Z,95507
2022-12-03T06:30:22.223Z,95510
2022-12-03T06:31:31.965Z,95510
2022-12-03T06:32:41.639Z,95512
2022-12-03T06:33:51.345Z,95515
2022-12-03T06:34:59.018Z,95510
2022-12-03T06:36:07.771Z,95513
2022-12-03T06:37:16.470Z,95511
2022-12-03T06:38:26.146Z,95508
2022-12-03T06:39:35.813Z,95511
2022-12-03T06:40:45.458Z,95510
2022-12-03T06:41:54.100Z,95510
2022-12-03T06:43:03.779Z,95511
2022-12-03T06:44:11.437Z,95509
2022-12-03T06:45:21.098Z,95509
2022-12-03T06:46:29.851Z,95506
2022-12-03T06:47:38.474Z,95508
2022-12-03T06:48:48.174Z,95512
2022-12-03T06:49:56.846Z,95510
2022-12-03T06:51:05.522Z,95510
2022-12-03T06:52:15.219Z,95511
2022-12-03T06:53:22.879Z,95509
2022-12-03T06:54:31.551Z,95503
2022-12-03T06:55:40.258Z,95508
2022-12-03T06:56:48.942Z,95504
2022-12-03T06:57:58.676Z,95499
2022-12-03T06:59:07.342Z,95501
2022-12-03T07:00:16.010Z,95499
2022-12-03T07:01:25.826Z,95503
2022-12-03T07:02:35.512Z,95503
2022-12-03T07:03:45.219Z,95501
2022-12-03T07:04:53.064Z,95500
2022-12-03T07:06:01.657Z,95490
2022-12-03T07:07:11.366Z,95495
2022-12-03T07:08:20.100Z,95496
2022-12-03T07:09:29.789Z,95496
2022-12-03T07:10:39.483Z,95498
2022-12-03T07:11:48.169Z,95500
2022-12-03T07:12:56.827Z,95499
2022-12-03T07:14:06.630Z,95505
2022-12-03T07:15:15.323Z,95502
2022-12-03T07:16:24.028Z,95501
2022-12-03T07:17:31.685Z,95512
2022-12-03T07:18:40.352Z,95508
2022-12-03T07:19:50.093Z,95511
2022-12-03T07:20:58.992Z,95512
2022-12-03T07:22:07.822Z,95511
2022-12-03T07:23:16.496Z,95509
2022-12-03T07:24:26.174Z,95505
2022-12-03T07:25:35.872Z,95506
2022-12-03T07:26:45.569Z,95503
2022-12-03T07:27:54.333Z,95504
2022-12-03T07:29:03.998Z,95508
2022-12-03T07:30:11.641Z,95504
2022-12-03T07:31:21.404Z,95499
2022-12-03T07:32:30.042Z,95500
2022-12-03T07:33:39.738Z,95500
2022-12-03T07:34:49.417Z,95500
2022-12-03T07:35:57.050Z,95498
2022-12-03T07:37:06.726Z,95494
2022-12-03T07:38:16.524Z,95496
2022-12-03T07:39:24.145Z,95498
2022-12-03T07:40:32.821Z,95496
2022-12-03T07:41:41.513Z,95499
2022-12-03T07:42:50.240Z,95502
2022-12-03T07:43:59.979Z,95501
2022-12-03T07:45:09.643Z,95502
2022-12-03T07:46:19.429Z,95504
2022-12-03T07:47:29.144Z,95504
2022-12-03T07:48:38.968Z,95506
2022-12-03T07:49:47.741Z,95508
2022-12-03T07:50:56.408Z,95509
2022-12-03T07:52:06.144Z,95505
2022-12-03T07:53:15.865Z,95507
2022-12-03T07:54:26.590Z,95508
2022-12-03T07:55:35.307Z,95513
2022-12-03T07:56:45.004Z,95517
2022-12-03T07:57:55.832Z,95514
2022-12-03T07:59:05.556Z,95516
2022-12-03T08:00:15.234Z,95509
2022-12-03T08:01:25.098Z,95512
2022-12-03T08:02:34.768Z,95511
2022-12-03T08:03:47.717Z,95503
2022-12-03T08:04:57.500Z,95503
2022-12-03T08:06:07.219Z,95503
2022-12-03T08:07:15.932Z,95498
2022-12-03T08:08:24.669Z,95496
2022-12-03T08:09:33.366Z,95500
2022-12-03T08:10:42.050Z,95502
2022-12-03T08:11:51.809Z,95505
2022-12-03T08:13:00.670Z,95506
2022-12-03T08:14:09.424Z,95502
2022-12-03T08:15:19.086Z,95503
2022-12-03T08:16:27.859Z,95505
2022-12-03T08:17:35.551Z,95504
2022-12-03T08:18:45.413Z,95505
2022-12-03T08:19:54.115Z,95501
2022-12-03T08:21:03.809Z,95500
2022-12-03T08:22:12.514Z,95499
2022-12-03T08:23:22.329Z,95503
2022-12-03T08:24:32.236Z,95500
2022-12-03T08:25:41.004Z,95496
2022-12-03T08:26:49.759Z,95493
2022-12-03T08:27:58.604Z,95500
2022-12-03T08:29:07.299Z,95494
2022-12-03T08:30:17.110Z,95496
2022-12-03T08:31:31.144Z,95497
2022-12-03T08:32:36.542Z,95498
2022-12-03T08:33:44.207Z,95501
2022-12-03T08:34:53.213Z,95500
2022-12-03T08:36:02.689Z,95502
2022-12-03T08:37:10.379Z,95499
2022-12-03T08:38:20.070Z,95497
2022-12-03T08:39:30.731Z,95501
2022-12-03T08:40:39.411Z,95501
2022-12-03T08:41:49.154Z,95503
2022-12-03T08:42:57.844Z,95506
2022-12-03T08:44:07.498Z,95503
2022-12-03T08:45:17.255Z,95503
2022-12-03T08:46:24.980Z,95507
2022-12-03T08:47:34.650Z,95507
2022-12-03T08:48:47.157Z,95503
2022-12-03T08:49:53.087Z,95507
2022-12-03T08:51:02.860Z,95506
2022-12-03T08:52:10.607Z,95506
2022-12-03T08:53:19.449Z,95512
2022-12-03T08:54:29.075Z,95511
2022-12-03T08:55:37.780Z,95514
2022-12-03T08:56:46.456Z,95509
2022-12-03T08:57:55.159Z,95512
2022-12-03T08:59:03.912Z,95509
2022-12-03T09:00:13.636Z,95506
2022-12-03T09:01:22.608Z,95500
2022-12-03T09:02:32.354Z,95506
2022-12-03T09:03:41.067Z,95500
2022-12-03T09:04:49.752Z,95499
2022-12-03T09:05:59.477Z,95503
2022-12-03T09:07:09.191Z,95502
2022-12-03T09:08:18.996Z,95504
2022-12-03T09:09:28.597Z,95509
2022-12-03T09:10:37.334Z,95504
2022-12-03T09:11:47.061Z,95506
2022-12-03T09:12:56.803Z,95503
2022-12-03T09:14:05.544Z,95499
2022-12-03T09:15:16.311Z,95497
2022-12-03T09:16:26.004Z,95497
2022-12-03T09:17:34.777Z,95501
2022-12-03T09:18:44.604Z,95505
2022-12-03T09:19:53.501Z,95506
2022-12-03T09:21:02.480Z,95504
2022-12-03T09:22:12.384Z,95501
2022-12-03T09:23:20.155Z,95504
2022-12-03T09:24:29.837Z,95504
2022-12-03T09:25:38.521Z,95509
2022-12-03T09:26:47.205Z,95511
2022-12-03T09:27:56.911Z,95509
2022-12-03T09:29:10.545Z,95512
2022-12-03T09:30:15.191Z,95506
2022-12-03T09:31:23.929Z,95506
2022-12-03T09:32:33.644Z,95507
2022-12-03T09:33:42.283Z,95504
2022-12-03T09:34:52.184Z,95506
2022-12-03T09:36:00.621Z,95503
2022-12-03T09:37:10.297Z,95505
2022-12-03T09:38:18.050Z,95504
2022-12-03T09:39:27.738Z,95504
2022-12-03T09:40:37.418Z,95500
2022-12-03T09:41:46.113Z,95496
2022-12-03T09:42:54.787Z,95498
2022-12-03T09:44:04.645Z,95497
2022-12-03T09:45:14.164Z,95493
2022-12-03T09:46:23.922Z,95485
2022-12-03T09:47:31.495Z,95496
2022-12-03T09:48:41.177Z,95488
2022-12-03T09:49:51.200Z,95496
2022-12-03T09:50:58.590Z,95496
2022-12-03T09:52:06.264Z,95494
2022-12-03T09:53:14.963Z,95494
2022-12-03T09:54:24.714Z,95496
2022-12-03T09:55:34.481Z,95490
2022-12-03T09:56:42.168Z,95485
2022-12-03T09:57:50.856Z,95484
2022-12-03T09:59:00.561Z,95477
2022-12-03T10:00:08.232Z,95481
2022-12-03T10:01:18.005Z,95474
2022-12-03T10:02:27.629Z,95467
2022-12-03T10:03:37.308Z,95467
2022-12-03T10:04:47.125Z,95465
2022-12-03T10:05:54.718Z,95465
2022-12-03T10:07:03.360Z,95463
2022-12-03T10:08:13.095Z,95458
2022-12-03T10:09:20.754Z,95456
2022-12-03T10:10:29.446Z,95452
2022-12-03T10:11:38.144Z,95456
2022-12-03T10:12:47.806Z,95463
2022-12-03T10:13:57.486Z,95462
2022-12-03T10:15:06.200Z,95465
2022-12-03T10:16:14.867Z,95462
2022-12-03T10:17:24.528Z,95464
2022-12-03T10:18:35.657Z,95461
2022-12-03T10:19:42.872Z,95464
2022-12-03T10:20:52.636Z,95463
2022-12-03T10:22:01.342Z,95465
2022-12-03T10:23:10.992Z,95459
2022-12-03T10:24:19.765Z,95456
2022-12-03T10:25:28.510Z,95448
2022-12-03T10:26:38.226Z,95447
2022-12-03T10:27:45.902Z,95447
2022-12-03T10:28:54.589Z,95441
2022-12-03T10:30:01.300Z,95443
2022-12-03T10:31:10.104Z,95437
2022-12-03T10:32:19.659Z,95435
2022-12-03T10:33:28.340Z,95439
2022-12-03T10:34:38.035Z,95439
2022-12-03T10:35:46.744Z,95440
2022-12-03T10:36:55.473Z,95433
2022-12-03T10:38:05.182Z,95430
2022-12-03T10:39:14.897Z,95431
2022-12-03T10:40:23.615Z,95432
2022-12-03T10:41:33.421Z,95433
2022-12-03T10:42:42.113Z,95437
2022-12-03T10:43:51.896Z,95437
2022-12-03T10:44:59.570Z,95434
2022-12-03T10:46:08.308Z,95433
2022-12-03T10:47:18.166Z,95436
2022-12-03T10:48:26.677Z,95431
2022-12-03T10:49:36.360Z,95427
2022-12-03T10:50:46.071Z,95425
2022-12-03T10:51:54.771Z,95422
2022-12-03T10:53:04.448Z,95417
2022-12-03T10:54:13.210Z,95419
2022-12-03T10:55:21.870Z,95417
2022-12-03T10:56:31.565Z,95418
2022-12-03T10:57:45.475Z,95416
2022-12-03T10:58:50.933Z,95417
2022-12-03T11:00:00.712Z,95419
2022-12-03T11:01:10.414Z,95415
2022-12-03T11:02:20.151Z,95415
2022-12-03T11:03:28.941Z,95415
2022-12-03T11:04:37.604Z,95412
2022-12-03T11:05:47.373Z,95412
2022-12-03T11:06:56.218Z,95411
2022-12-03T11:08:05.983Z,95410
2022-12-03T11:09:15.594Z,95409
2022-12-03T11:10:24.339Z,95409
2022-12-03T11:11:34.012Z,95405
2022-12-03T11:12:42.698Z,95404
2022-12-03T11:13:51.387Z,95400
2022-12-03T11:15:01.100Z,95405
2022-12-03T11:16:09.843Z,95400
2022-12-03T11:17:18.510Z,95404
2022-12-03T11:18:27.224Z,95400
2022-12-03T11:19:35.896Z,95404
2022-12-03T11:20:45.593Z,95405
2022-12-03T11:21:53.286Z,95409
2022-12-03T11:23:01.971Z,95411
2022-12-03T11:24:11.696Z,95413
2022-12-03T11:25:20.348Z,95408
2022-12-03T11:26:29.051Z,95412
2022-12-03T11:27:38.704Z,95411
2022-12-03T11:28:48.450Z,95406
2022-12-03T11:29:58.167Z,95413
2022-12-03T11:31:04.856Z,95417
2022-12-03T11:32:13.510Z,95419
2022-12-03T11:33:23.232Z,95417
2022-12-03T11:34:31.984Z,95418
2022-12-03T11:35:40.656Z,95414
2022-12-03T11:37:01.340Z,95413
2022-12-03T11:38:01.004Z,95414
2022-12-03T11:39:10.719Z,95410
2022-12-03T11:40:18.450Z,95408
2022-12-03T11:41:27.118Z,95408
2022-12-03T11:42:36.851Z,95400
2022-12-03T11:43:45.500Z,95401
2022-12-03T11:44:54.190Z,95393
2022-12-03T11:46:04.478Z,95401
2022-12-03T11:47:11.662Z,95397
2022-12-03T11:48:21.317Z,95407
2022-12-03T11:49:30.000Z,95400
2022-12-03T11:50:40.486Z,95403
2022-12-03T11:51:47.323Z,95400
2022-12-03T11:52:55.011Z,95395
2022-12-03T11:54:03.659Z,95395
2022-12-03T11:55:12.369Z,95397
2022-12-03T11:56:22.068Z,95399
2022-12-03T11:57:31.743Z,95405
2022-12-03T11:58:40.521Z,95412
2022-12-03T11:59:49.180Z,95407
2022-12-03T12:00:58.953Z,95400
2022-12-03T12:02:08.646Z,95397
2022-12-03T12:03:17.439Z,95391
2022-12-03T12:04:26.082Z,95394
2022-12-03T12:05:34.743Z,95397
2022-12-03T12:06:44.431Z,95399
2022-12-03T12:07:55.126Z,95396
2022-12-03T12:09:04.863Z,95395
2022-12-03T12:10:14.549Z,95393
2022-12-03T12:11:23.233Z,95395
2022-12-03T12:12:32.908Z,95391
2022-12-03T12:13:41.585Z,95392
2022-12-03T12:14:50.312Z,95395
2022-12-03T12:16:00.025Z,95393
2022-12-03T12:17:08.706Z,95393
2022-12-03T12:18:17.411Z,95392
2022-12-03T12:19:27.097Z,95390
2022-12-03T12:20:35.773Z,95390
2022-12-03T12:21:45.472Z,95389
2022-12-03T12:22:54.161Z,95389
2022-12-03T12:24:02.822Z,95387
2022-12-03T12:25:12.561Z,95382
2022-12-03T12:26:21.293Z,95382
2022-12-03T12:27:31.000Z,95383
2022-12-03T12:28:38.696Z,95378
2022-12-03T12:29:48.385Z,95379
2022-12-03T12:30:58.144Z,95371
2022-12-03T12:32:05.838Z,95372
2022-12-03T12:33:14.491Z,95368
2022-12-03T12:34:23.158Z,95374
2022-12-03T12:35:31.851Z,95375
2022-12-03T12:36:41.575Z,95375
2022-12-03T12:37:53.446Z,95374
2022-12-03T12:38:58.926Z,95373
2022-12-03T12:40:08.587Z,95368
2022-12-03T12:41:17.282Z,95368
2022-12-03T12:42:25.959Z,95361
2022-12-03T12:43:34.685Z,95362
2022-12-03T12:44:44.342Z,95365
2022-12-03T12:45:54.024Z,95361
2022-12-03T12:47:03.749Z,95355
2022-12-03T12:48:12.344Z,95357
2022-12-03T12:49:22.087Z,95359
2022-12-03T12:50:30.757Z,95359
2022-12-03T12:51:40.447Z,95354
2022-12-03T12:52:50.145Z,95350
2022-12-03T12:53:58.834Z,95345
2022-12-03T12:55:08.588Z,95344
2022-12-03T12:56:17.257Z,95339
2022-12-03T12:57:25.933Z,95343
2022-12-03T12:58:34.603Z,95341
2022-12-03T12:59:43.324Z,95338
2022-12-03T13:00:53.101Z,95340
2022-12-03T13:02:07.161Z,95334
2022-12-03T13:03:12.494Z,95338
2022-12-03T13:04:22.218Z,95336
2022-12-03T13:05:30.927Z,95334
2022-12-03T13:06:40.679Z,95337
2022-12-03T13:07:50.466Z,95339
2022-12-03T13:08:59.050Z,95339
2022-12-03T13:10:08.765Z,95342
2022-12-03T13:11:18.445Z,95336
2022-12-03T13:12:27.197Z,95341
2022-12-03T13:13:41.770Z,95334
2022-12-03T13:14:47.552Z,95337
2022-12-03T13:15:57.258Z,95338
2022-12-03T13:17:06.924Z,95334
2022-12-03T13:18:16.684Z,95336
2022-12-03T13:19:26.331Z,95329
2022-12-03T13:20:35.009Z,95329
2022-12-03T13:21:44.788Z,95329
2022-12-03T13:22:54.485Z,95322
2022-12-03T13:24:03.249Z,95320
2022-12-03T13:25:11.945Z,95323
2022-12-03T13:26:34.421Z,95323
2022-12-03T13:27:33.248Z,95321
2022-12-03T13:28:43.002Z,95315
2022-12-03T13:29:51.888Z,95309
2022-12-03T13:31:01.445Z,95311
2022-12-03T13:32:11.125Z,95309
2022-12-03T13:33:20.815Z,95312
2022-12-03T13:34:29.494Z,95310
2022-12-03T13:35:38.190Z,95308
2022-12-03T13:36:50.686Z,95308
2022-12-03T13:37:57.545Z,95311
2022-12-03T13:39:07.260Z,95306
2022-12-03T13:40:15.933Z,95304
2022-12-03T13:41:25.665Z,95308
2022-12-03T13:42:35.360Z,95311
2022-12-03T13:43:45.059Z,95311
2022-12-03T13:44:54.721Z,95313
2022-12-03T13:46:04.439Z,95314
2022-12-03T13:47:14.091Z,95316
2022-12-03T13:48:21.754Z,95319
2022-12-03T13:49:31.459Z,95315
2022-12-03T13:50:41.117Z,95310
2022-12-03T13:51:48.815Z,95308
2022-12-03T13:52:58.488Z,95303
2022-12-03T13:54:11.619Z,95304
2022-12-03T13:55:18.960Z,95306
2022-12-03T13:56:27.675Z,95304
2022-12-03T13:57:36.353Z,95301
2022-12-03T13:58:45.024Z,95310
2022-12-03T13:59:54.875Z,95311
2022-12-03T14:01:03.425Z,95312
2022-12-03T14:02:13.162Z,95310
2022-12-03T14:03:22.767Z,95313
2022-12-03T14:04:31.448Z,95308
2022-12-03T14:05:41.174Z,95313
2022-12-03T14:06:50.837Z,95318
2022-12-03T14:08:00.602Z,95318
2022-12-03T14:09:10.268Z,95318
2022-12-03T14:10:17.940Z,95319
2022-12-03T14:11:26.600Z,95324
2022-12-03T14:12:36.304Z,95321
2022-12-03T14:13:44.999Z,95311
2022-12-03T14:14:53.669Z,95319
2022-12-03T14:16:03.465Z,95313
2022-12-03T14:17:12.127Z,95312
2022-12-03T14:18:21.810Z,95311
2022-12-03T14:19:31.481Z,95311
2022-12-03T14:20:41.158Z,95310
2022-12-03T14:21:50.874Z,95309
2022-12-03T14:22:59.809Z,95307
2022-12-03T14:24:08.200Z,95303
2022-12-03T14:25:17.891Z,95303
2022-12-03T14:26:26.672Z,95312
2022-12-03T14:27:36.416Z,95310
2022-12-03T14:28:46.069Z,95311
2022-12-03T14:29:56.082Z,95311
2022-12-03T14:31:03.433Z,95313
2022-12-03T14:32:13.271Z,95313
2022-12-03T14:33:22.835Z,95310
2022-12-03T14:34:32.522Z,95312
2022-12-03T14:35:42.192Z,95312
2022-12-03T14:36:51.890Z,95310
2022-12-03T14:38:00.584Z,95309
2022-12-03T14:39:10.285Z,95309
2022-12-03T14:40:21.566Z,95312
2022-12-03T14:41:26.621Z,95309
2022-12-03T14:42:36.304Z,95312
2022-12-03T14:43:43.971Z,95310
2022-12-03T14:44:52.667Z,95314
2022-12-03T14:46:01.349Z,95317
2022-12-03T14:47:10.004Z,95318
2022-12-03T14:48:19.747Z,95319
2022-12-03T14:49:27.438Z,95315